sensor_id;sensor_type;location;lat;lon;timestamp;P1;durP1;ratioP1;P2;durP2;ratioP2
1214;SDS011;597;51.998;5.880;2022-08-01T00:02:00;27.80;;;20.10;;
1214;SDS011;597;51.998;5.880;2022-08-01T00:04:25;34.20;;;20.20;;
1214;SDS011;597;51.998;5.880;2022-08-01T00:06:50;32.30;;;20.70;;
1214;SDS011;597;51.998;5.880;2022-08-01T00:09:15;27.50;;;19.50;;
1214;SDS011;597;51.998;5.880;2022-08-01T00:11:41;37.83;;;20.40;;
1214;SDS011;597;51.998;5.880;2022-08-01T00:14:07;29.43;;;19.63;;
1214;SDS011;597;51.998;5.880;2022-08-01T00:16:34;30.07;;;19.67;;
1214;SDS011;597;51.998;5.880;2022-08-01T00:18:59;27.13;;;19.80;;
1214;SDS011;597;51.998;5.880;2022-08-01T00:21:24;29.50;;;19.57;;
1214;SDS011;597;51.998;5.880;2022-08-01T00:23:50;35.67;;;20.90;;
1214;SDS011;597;51.998;5.880;2022-08-01T00:26:15;33.50;;;19.63;;
1214;SDS011;597;51.998;5.880;2022-08-01T00:28:40;28.80;;;20.20;;
1214;SDS011;597;51.998;5.880;2022-08-01T00:31:05;29.73;;;20.60;;
1214;SDS011;597;51.998;5.880;2022-08-01T00:33:31;25.40;;;19.47;;
1214;SDS011;597;51.998;5.880;2022-08-01T00:35:56;26.20;;;20.53;;
1214;SDS011;597;51.998;5.880;2022-08-01T00:38:21;29.17;;;20.93;;
1214;SDS011;597;51.998;5.880;2022-08-01T00:40:47;31.10;;;20.80;;
1214;SDS011;597;51.998;5.880;2022-08-01T00:43:12;31.53;;;21.33;;
1214;SDS011;597;51.998;5.880;2022-08-01T00:45:37;30.50;;;21.27;;
1214;SDS011;597;51.998;5.880;2022-08-01T00:48:02;31.10;;;21.07;;
1214;SDS011;597;51.998;5.880;2022-08-01T00:50:28;33.97;;;21.80;;
1214;SDS011;597;51.998;5.880;2022-08-01T00:52:53;26.20;;;20.13;;
1214;SDS011;597;51.998;5.880;2022-08-01T00:55:19;30.03;;;20.93;;
1214;SDS011;597;51.998;5.880;2022-08-01T00:57:45;36.80;;;21.77;;
1214;SDS011;597;51.998;5.880;2022-08-01T01:00:11;34.23;;;23.60;;
1214;SDS011;597;51.998;5.880;2022-08-01T01:02:36;31.17;;;22.90;;
1214;SDS011;597;51.998;5.880;2022-08-01T01:05:02;34.37;;;23.27;;
1214;SDS011;597;51.998;5.880;2022-08-01T01:10:00;32.73;;;22.17;;
1214;SDS011;597;51.998;5.880;2022-08-01T01:15:06;33.00;;;23.40;;
1214;SDS011;597;51.998;5.880;2022-08-01T01:17:35;36.10;;;22.50;;
1214;SDS011;597;51.998;5.880;2022-08-01T01:20:01;33.07;;;22.07;;
1214;SDS011;597;51.998;5.880;2022-08-01T01:22:47;35.20;;;21.07;;
1214;SDS011;597;51.998;5.880;2022-08-01T01:30:50;31.00;;;20.00;;
1214;SDS011;597;51.998;5.880;2022-08-01T01:33:16;29.10;;;19.70;;
1214;SDS011;597;51.998;5.880;2022-08-01T01:35:42;27.20;;;18.73;;
1214;SDS011;597;51.998;5.880;2022-08-01T01:38:14;26.50;;;18.90;;
1214;SDS011;597;51.998;5.880;2022-08-01T01:40:40;33.83;;;18.60;;
1214;SDS011;597;51.998;5.880;2022-08-01T01:43:07;28.10;;;18.37;;
1214;SDS011;597;51.998;5.880;2022-08-01T01:45:34;28.53;;;18.20;;
1214;SDS011;597;51.998;5.880;2022-08-01T01:48:00;32.23;;;19.10;;
1214;SDS011;597;51.998;5.880;2022-08-01T01:50:26;31.00;;;18.10;;
1214;SDS011;597;51.998;5.880;2022-08-01T01:52:52;25.93;;;17.97;;
1214;SDS011;597;51.998;5.880;2022-08-01T01:55:18;24.27;;;17.03;;
1214;SDS011;597;51.998;5.880;2022-08-01T01:57:44;30.97;;;18.93;;
1214;SDS011;597;51.998;5.880;2022-08-01T02:00:10;28.40;;;18.73;;
1214;SDS011;597;51.998;5.880;2022-08-01T02:02:36;27.50;;;18.33;;
1214;SDS011;597;51.998;5.880;2022-08-01T02:05:01;34.63;;;18.80;;
1214;SDS011;597;51.998;5.880;2022-08-01T02:07:27;29.50;;;18.30;;
1214;SDS011;597;51.998;5.880;2022-08-01T02:09:52;27.90;;;18.10;;
1214;SDS011;597;51.998;5.880;2022-08-01T02:12:19;28.90;;;16.37;;
1214;SDS011;597;51.998;5.880;2022-08-01T02:14:46;28.43;;;17.03;;
1214;SDS011;597;51.998;5.880;2022-08-01T02:17:12;28.57;;;16.50;;
1214;SDS011;597;51.998;5.880;2022-08-01T02:19:41;29.57;;;17.30;;
1214;SDS011;597;51.998;5.880;2022-08-01T02:22:10;27.33;;;17.03;;
1214;SDS011;597;51.998;5.880;2022-08-01T02:27:11;26.43;;;16.60;;
1214;SDS011;597;51.998;5.880;2022-08-01T02:29:39;30.30;;;17.43;;
1214;SDS011;597;51.998;5.880;2022-08-01T02:32:06;29.57;;;17.70;;
1214;SDS011;597;51.998;5.880;2022-08-01T02:34:32;31.33;;;16.63;;
1214;SDS011;597;51.998;5.880;2022-08-01T02:36:59;33.57;;;17.27;;
1214;SDS011;597;51.998;5.880;2022-08-01T02:39:25;27.53;;;18.23;;
1214;SDS011;597;51.998;5.880;2022-08-01T02:41:52;31.83;;;18.57;;
1214;SDS011;597;51.998;5.880;2022-08-01T02:44:23;28.67;;;17.20;;
1214;SDS011;597;51.998;5.880;2022-08-01T02:46:50;30.63;;;17.20;;
1214;SDS011;597;51.998;5.880;2022-08-01T02:49:16;26.43;;;16.63;;
1214;SDS011;597;51.998;5.880;2022-08-01T02:51:44;29.07;;;16.40;;
1214;SDS011;597;51.998;5.880;2022-08-01T02:54:10;27.33;;;17.33;;
1214;SDS011;597;51.998;5.880;2022-08-01T02:56:36;28.57;;;16.60;;
1214;SDS011;597;51.998;5.880;2022-08-01T02:59:06;32.30;;;18.50;;
1214;SDS011;597;51.998;5.880;2022-08-01T03:01:33;31.57;;;16.03;;
1214;SDS011;597;51.998;5.880;2022-08-01T03:03:59;26.80;;;16.60;;
1214;SDS011;597;51.998;5.880;2022-08-01T03:06:24;29.97;;;16.37;;
1214;SDS011;597;51.998;5.880;2022-08-01T03:08:50;26.60;;;16.77;;
1214;SDS011;597;51.998;5.880;2022-08-01T03:11:15;28.27;;;15.20;;
1214;SDS011;597;51.998;5.880;2022-08-01T03:13:41;31.93;;;17.10;;
1214;SDS011;597;51.998;5.880;2022-08-01T03:16:08;20.07;;;12.40;;
1214;SDS011;597;51.998;5.880;2022-08-01T03:18:34;19.47;;;12.17;;
1214;SDS011;597;51.998;5.880;2022-08-01T03:21:00;18.90;;;11.03;;
1214;SDS011;597;51.998;5.880;2022-08-01T03:23:26;13.00;;;9.20;;
1214;SDS011;597;51.998;5.880;2022-08-01T03:25:52;18.30;;;9.93;;
1214;SDS011;597;51.998;5.880;2022-08-01T03:28:18;14.40;;;9.17;;
1214;SDS011;597;51.998;5.880;2022-08-01T03:30:43;19.33;;;11.23;;
1214;SDS011;597;51.998;5.880;2022-08-01T03:33:09;17.57;;;11.20;;
1214;SDS011;597;51.998;5.880;2022-08-01T03:35:48;17.53;;;12.23;;
1214;SDS011;597;51.998;5.880;2022-08-01T03:38:15;18.50;;;12.97;;
1214;SDS011;597;51.998;5.880;2022-08-01T03:40:47;19.67;;;13.00;;
1214;SDS011;597;51.998;5.880;2022-08-01T03:43:19;26.67;;;14.57;;
1214;SDS011;597;51.998;5.880;2022-08-01T03:45:49;23.40;;;13.83;;
1214;SDS011;597;51.998;5.880;2022-08-01T03:48:19;22.23;;;14.43;;
1214;SDS011;597;51.998;5.880;2022-08-01T03:50:48;19.73;;;12.40;;
1214;SDS011;597;51.998;5.880;2022-08-01T03:53:15;17.33;;;12.90;;
1214;SDS011;597;51.998;5.880;2022-08-01T03:55:41;19.13;;;12.70;;
1214;SDS011;597;51.998;5.880;2022-08-01T03:58:07;21.97;;;13.13;;
1214;SDS011;597;51.998;5.880;2022-08-01T04:00:32;21.20;;;13.43;;
1214;SDS011;597;51.998;5.880;2022-08-01T04:02:58;19.33;;;11.80;;
1214;SDS011;597;51.998;5.880;2022-08-01T04:05:23;19.37;;;12.80;;
1214;SDS011;597;51.998;5.880;2022-08-01T04:07:49;18.90;;;12.47;;
1214;SDS011;597;51.998;5.880;2022-08-01T04:10:21;21.37;;;12.97;;
1214;SDS011;597;51.998;5.880;2022-08-01T04:12:47;21.40;;;13.50;;
1214;SDS011;597;51.998;5.880;2022-08-01T04:15:13;23.00;;;13.27;;
1214;SDS011;597;51.998;5.880;2022-08-01T04:17:38;18.50;;;12.90;;
1214;SDS011;597;51.998;5.880;2022-08-01T04:20:04;19.70;;;12.30;;
1214;SDS011;597;51.998;5.880;2022-08-01T04:22:29;20.60;;;14.50;;
1214;SDS011;597;51.998;5.880;2022-08-01T04:24:55;21.63;;;14.37;;
1214;SDS011;597;51.998;5.880;2022-08-01T04:27:24;27.70;;;16.00;;
1214;SDS011;597;51.998;5.880;2022-08-01T04:29:51;25.20;;;16.67;;
1214;SDS011;597;51.998;5.880;2022-08-01T04:32:19;28.37;;;16.63;;
1214;SDS011;597;51.998;5.880;2022-08-01T04:34:45;24.93;;;15.43;;
1214;SDS011;597;51.998;5.880;2022-08-01T04:37:11;22.93;;;15.00;;
1214;SDS011;597;51.998;5.880;2022-08-01T04:39:37;25.70;;;17.13;;
1214;SDS011;597;51.998;5.880;2022-08-01T04:42:04;28.17;;;16.80;;
1214;SDS011;597;51.998;5.880;2022-08-01T04:44:31;23.97;;;16.30;;
1214;SDS011;597;51.998;5.880;2022-08-01T04:46:58;25.40;;;15.60;;
1214;SDS011;597;51.998;5.880;2022-08-01T04:49:23;29.87;;;17.07;;
1214;SDS011;597;51.998;5.880;2022-08-01T04:51:52;28.87;;;15.67;;
1214;SDS011;597;51.998;5.880;2022-08-01T04:54:22;22.90;;;15.60;;
1214;SDS011;597;51.998;5.880;2022-08-01T04:56:48;23.97;;;14.53;;
1214;SDS011;597;51.998;5.880;2022-08-01T04:59:13;31.57;;;15.87;;
1214;SDS011;597;51.998;5.880;2022-08-01T05:01:57;22.23;;;15.73;;
1214;SDS011;597;51.998;5.880;2022-08-01T05:04:22;22.63;;;16.23;;
1214;SDS011;597;51.998;5.880;2022-08-01T05:06:47;23.33;;;15.60;;
1214;SDS011;597;51.998;5.880;2022-08-01T05:09:12;21.93;;;14.47;;
1214;SDS011;597;51.998;5.880;2022-08-01T05:11:37;24.33;;;16.37;;
1214;SDS011;597;51.998;5.880;2022-08-01T05:14:03;23.60;;;16.37;;
1214;SDS011;597;51.998;5.880;2022-08-01T05:16:28;23.67;;;15.87;;
1214;SDS011;597;51.998;5.880;2022-08-01T05:18:53;30.30;;;16.70;;
1214;SDS011;597;51.998;5.880;2022-08-01T05:21:18;25.70;;;15.40;;
1214;SDS011;597;51.998;5.880;2022-08-01T05:23:43;20.73;;;15.60;;
1214;SDS011;597;51.998;5.880;2022-08-01T05:26:09;22.50;;;15.47;;
1214;SDS011;597;51.998;5.880;2022-08-01T05:28:35;22.77;;;15.60;;
1214;SDS011;597;51.998;5.880;2022-08-01T05:31:00;17.20;;;13.00;;
1214;SDS011;597;51.998;5.880;2022-08-01T05:33:25;22.77;;;14.80;;
1214;SDS011;597;51.998;5.880;2022-08-01T05:35:50;20.93;;;14.93;;
1214;SDS011;597;51.998;5.880;2022-08-01T05:38:16;19.27;;;14.13;;
1214;SDS011;597;51.998;5.880;2022-08-01T05:40:41;20.33;;;14.00;;
1214;SDS011;597;51.998;5.880;2022-08-01T05:43:06;19.43;;;15.50;;
1214;SDS011;597;51.998;5.880;2022-08-01T05:45:31;25.57;;;15.07;;
1214;SDS011;597;51.998;5.880;2022-08-01T05:47:56;15.80;;;12.20;;
1214;SDS011;597;51.998;5.880;2022-08-01T05:50:21;17.13;;;12.10;;
1214;SDS011;597;51.998;5.880;2022-08-01T05:52:47;13.67;;;10.47;;
1214;SDS011;597;51.998;5.880;2022-08-01T05:55:12;12.70;;;9.70;;
1214;SDS011;597;51.998;5.880;2022-08-01T05:57:37;11.10;;;9.10;;
1214;SDS011;597;51.998;5.880;2022-08-01T06:00:02;9.00;;;7.60;;
1214;SDS011;597;51.998;5.880;2022-08-01T06:02:27;10.60;;;6.53;;
1214;SDS011;597;51.998;5.880;2022-08-01T06:04:53;7.53;;;5.67;;
1214;SDS011;597;51.998;5.880;2022-08-01T06:07:18;6.43;;;5.80;;
1214;SDS011;597;51.998;5.880;2022-08-01T06:09:43;7.77;;;5.80;;
1214;SDS011;597;51.998;5.880;2022-08-01T06:12:08;5.53;;;5.03;;
1214;SDS011;597;51.998;5.880;2022-08-01T06:14:34;7.13;;;4.73;;
1214;SDS011;597;51.998;5.880;2022-08-01T06:16:59;3.93;;;3.30;;
1214;SDS011;597;51.998;5.880;2022-08-01T06:19:24;3.80;;;3.50;;
1214;SDS011;597;51.998;5.880;2022-08-01T06:21:51;4.00;;;3.60;;
1214;SDS011;597;51.998;5.880;2022-08-01T06:24:16;2.80;;;2.53;;
1214;SDS011;597;51.998;5.880;2022-08-01T06:26:41;3.83;;;2.67;;
1214;SDS011;597;51.998;5.880;2022-08-01T06:29:07;3.07;;;2.40;;
1214;SDS011;597;51.998;5.880;2022-08-01T06:31:32;2.17;;;1.73;;
1214;SDS011;597;51.998;5.880;2022-08-01T06:33:57;3.20;;;2.90;;
1214;SDS011;597;51.998;5.880;2022-08-01T06:36:23;3.37;;;2.70;;
1214;SDS011;597;51.998;5.880;2022-08-01T06:38:48;3.50;;;3.00;;
1214;SDS011;597;51.998;5.880;2022-08-01T06:41:13;5.63;;;2.50;;
1214;SDS011;597;51.998;5.880;2022-08-01T06:43:38;3.50;;;2.70;;
1214;SDS011;597;51.998;5.880;2022-08-01T06:46:03;3.13;;;2.83;;
1214;SDS011;597;51.998;5.880;2022-08-01T06:48:29;3.13;;;2.83;;
1214;SDS011;597;51.998;5.880;2022-08-01T06:50:54;3.40;;;3.00;;
1214;SDS011;597;51.998;5.880;2022-08-01T06:53:33;3.17;;;2.67;;
1214;SDS011;597;51.998;5.880;2022-08-01T06:55:58;3.87;;;3.57;;
1214;SDS011;597;51.998;5.880;2022-08-01T06:58:23;3.70;;;3.40;;
1214;SDS011;597;51.998;5.880;2022-08-01T07:00:49;4.10;;;2.70;;
1214;SDS011;597;51.998;5.880;2022-08-01T07:03:14;3.20;;;2.90;;
1214;SDS011;597;51.998;5.880;2022-08-01T07:05:39;8.43;;;3.53;;
1214;SDS011;597;51.998;5.880;2022-08-01T07:08:04;3.80;;;3.00;;
1214;SDS011;597;51.998;5.880;2022-08-01T07:10:30;4.83;;;4.10;;
1214;SDS011;597;51.998;5.880;2022-08-01T07:12:55;3.93;;;3.20;;
1214;SDS011;597;51.998;5.880;2022-08-01T07:15:20;3.40;;;3.10;;
1214;SDS011;597;51.998;5.880;2022-08-01T07:17:51;4.07;;;3.00;;
1214;SDS011;597;51.998;5.880;2022-08-01T07:20:16;3.73;;;3.30;;
1214;SDS011;597;51.998;5.880;2022-08-01T07:22:41;4.20;;;3.40;;
1214;SDS011;597;51.998;5.880;2022-08-01T07:25:07;3.37;;;3.07;;
1214;SDS011;597;51.998;5.880;2022-08-01T07:27:32;4.03;;;2.60;;
1214;SDS011;597;51.998;5.880;2022-08-01T07:29:57;4.23;;;3.03;;
1214;SDS011;597;51.998;5.880;2022-08-01T07:32:23;6.50;;;2.97;;
1214;SDS011;597;51.998;5.880;2022-08-01T07:34:48;3.50;;;3.20;;
1214;SDS011;597;51.998;5.880;2022-08-01T07:37:13;4.63;;;3.87;;
1214;SDS011;597;51.998;5.880;2022-08-01T07:39:38;5.00;;;3.30;;
1214;SDS011;597;51.998;5.880;2022-08-01T07:42:04;6.33;;;3.30;;
1214;SDS011;597;51.998;5.880;2022-08-01T07:44:29;6.07;;;2.83;;
1214;SDS011;597;51.998;5.880;2022-08-01T07:46:54;5.60;;;2.70;;
1214;SDS011;597;51.998;5.880;2022-08-01T07:49:19;3.47;;;3.17;;
1214;SDS011;597;51.998;5.880;2022-08-01T07:51:46;3.87;;;3.30;;
1214;SDS011;597;51.998;5.880;2022-08-01T07:54:11;3.60;;;3.30;;
1214;SDS011;597;51.998;5.880;2022-08-01T07:56:37;4.93;;;4.03;;
1214;SDS011;597;51.998;5.880;2022-08-01T07:59:02;6.37;;;3.50;;
1214;SDS011;597;51.998;5.880;2022-08-01T08:01:27;4.10;;;3.70;;
1214;SDS011;597;51.998;5.880;2022-08-01T08:03:52;3.50;;;3.20;;
1214;SDS011;597;51.998;5.880;2022-08-01T08:06:17;5.47;;;3.47;;
1214;SDS011;597;51.998;5.880;2022-08-01T08:08:42;4.50;;;3.70;;
1214;SDS011;597;51.998;5.880;2022-08-01T08:11:08;4.80;;;3.50;;
1214;SDS011;597;51.998;5.880;2022-08-01T08:13:33;9.50;;;4.13;;
1214;SDS011;597;51.998;5.880;2022-08-01T08:15:58;5.00;;;3.57;;
1214;SDS011;597;51.998;5.880;2022-08-01T08:18:24;4.30;;;3.63;;
1214;SDS011;597;51.998;5.880;2022-08-01T08:20:49;9.40;;;4.07;;
1214;SDS011;597;51.998;5.880;2022-08-01T08:23:15;5.63;;;3.70;;
1214;SDS011;597;51.998;5.880;2022-08-01T08:25:59;6.00;;;4.40;;
1214;SDS011;597;51.998;5.880;2022-08-01T08:28:24;4.43;;;4.03;;
1214;SDS011;597;51.998;5.880;2022-08-01T08:30:49;5.00;;;4.10;;
1214;SDS011;597;51.998;5.880;2022-08-01T08:33:14;5.00;;;4.10;;
1214;SDS011;597;51.998;5.880;2022-08-01T08:35:40;4.60;;;3.80;;
1214;SDS011;597;51.998;5.880;2022-08-01T08:38:06;4.43;;;3.73;;
1214;SDS011;597;51.998;5.880;2022-08-01T08:40:31;5.77;;;4.00;;
1214;SDS011;597;51.998;5.880;2022-08-01T08:42:57;4.00;;;3.60;;
1214;SDS011;597;51.998;5.880;2022-08-01T08:45:24;3.73;;;3.43;;
1214;SDS011;597;51.998;5.880;2022-08-01T08:47:49;3.93;;;3.10;;
1214;SDS011;597;51.998;5.880;2022-08-01T08:50:14;5.27;;;3.27;;
1214;SDS011;597;51.998;5.880;2022-08-01T08:52:40;3.90;;;3.30;;
1214;SDS011;597;51.998;5.880;2022-08-01T08:55:06;3.10;;;2.57;;
1214;SDS011;597;51.998;5.880;2022-08-01T08:57:32;4.07;;;3.67;;
1214;SDS011;597;51.998;5.880;2022-08-01T08:59:57;5.93;;;3.97;;
1214;SDS011;597;51.998;5.880;2022-08-01T09:02:22;7.53;;;4.07;;
1214;SDS011;597;51.998;5.880;2022-08-01T09:04:48;7.03;;;3.97;;
1214;SDS011;597;51.998;5.880;2022-08-01T09:07:14;7.37;;;4.37;;
1214;SDS011;597;51.998;5.880;2022-08-01T09:09:39;7.83;;;4.50;;
1214;SDS011;597;51.998;5.880;2022-08-01T09:12:05;8.17;;;4.20;;
1214;SDS011;597;51.998;5.880;2022-08-01T09:14:30;7.57;;;5.23;;
1214;SDS011;597;51.998;5.880;2022-08-01T09:17:00;9.17;;;5.57;;
1214;SDS011;597;51.998;5.880;2022-08-01T09:19:26;11.90;;;6.20;;
1214;SDS011;597;51.998;5.880;2022-08-01T09:21:59;10.77;;;6.43;;
1214;SDS011;597;51.998;5.880;2022-08-01T09:24:25;6.67;;;5.43;;
1214;SDS011;597;51.998;5.880;2022-08-01T09:26:51;6.93;;;5.50;;
1214;SDS011;597;51.998;5.880;2022-08-01T09:29:25;6.93;;;6.17;;
1214;SDS011;597;51.998;5.880;2022-08-01T09:31:51;14.60;;;6.63;;
1214;SDS011;597;51.998;5.880;2022-08-01T09:34:23;9.97;;;7.13;;
1214;SDS011;597;51.998;5.880;2022-08-01T09:36:49;9.07;;;6.60;;
1214;SDS011;597;51.998;5.880;2022-08-01T09:39:21;9.97;;;6.90;;
1214;SDS011;597;51.998;5.880;2022-08-01T09:41:47;9.00;;;6.60;;
1214;SDS011;597;51.998;5.880;2022-08-01T09:44:13;11.53;;;7.57;;
1214;SDS011;597;51.998;5.880;2022-08-01T09:46:51;9.47;;;6.73;;
1214;SDS011;597;51.998;5.880;2022-08-01T09:49:26;11.80;;;6.97;;
1214;SDS011;597;51.998;5.880;2022-08-01T09:51:52;13.23;;;6.90;;
1214;SDS011;597;51.998;5.880;2022-08-01T09:54:27;8.23;;;7.20;;
1214;SDS011;597;51.998;5.880;2022-08-01T09:56:52;9.37;;;7.10;;
1214;SDS011;597;51.998;5.880;2022-08-01T09:59:17;14.23;;;8.17;;
1214;SDS011;597;51.998;5.880;2022-08-01T10:01:47;12.33;;;7.83;;
1214;SDS011;597;51.998;5.880;2022-08-01T10:04:21;8.63;;;7.73;;
1214;SDS011;597;51.998;5.880;2022-08-01T10:06:48;8.40;;;7.50;;
1214;SDS011;597;51.998;5.880;2022-08-01T10:09:26;12.20;;;7.70;;
1214;SDS011;597;51.998;5.880;2022-08-01T10:11:52;22.07;;;8.10;;
1214;SDS011;597;51.998;5.880;2022-08-01T10:14:17;15.97;;;8.43;;
1214;SDS011;597;51.998;5.880;2022-08-01T10:16:45;9.93;;;8.47;;
1214;SDS011;597;51.998;5.880;2022-08-01T10:19:10;13.87;;;7.10;;
1214;SDS011;597;51.998;5.880;2022-08-01T10:21:35;11.20;;;7.27;;
1214;SDS011;597;51.998;5.880;2022-08-01T10:24:02;11.17;;;7.43;;
1214;SDS011;597;51.998;5.880;2022-08-01T10:26:27;9.60;;;6.50;;
1214;SDS011;597;51.998;5.880;2022-08-01T10:28:54;11.47;;;6.87;;
1214;SDS011;597;51.998;5.880;2022-08-01T10:31:19;19.80;;;8.37;;
1214;SDS011;597;51.998;5.880;2022-08-01T10:33:44;7.67;;;6.43;;
1214;SDS011;597;51.998;5.880;2022-08-01T10:36:10;10.53;;;6.27;;
1214;SDS011;597;51.998;5.880;2022-08-01T10:38:35;10.07;;;5.80;;
1214;SDS011;597;51.998;5.880;2022-08-01T10:41:01;15.03;;;5.30;;
1214;SDS011;597;51.998;5.880;2022-08-01T10:43:27;13.63;;;5.83;;
1214;SDS011;597;51.998;5.880;2022-08-01T10:45:52;11.33;;;5.83;;
1214;SDS011;597;51.998;5.880;2022-08-01T10:50:49;12.63;;;5.83;;
1214;SDS011;597;51.998;5.880;2022-08-01T10:55:49;8.47;;;5.47;;
1214;SDS011;597;51.998;5.880;2022-08-01T10:58:19;5.50;;;4.67;;
1214;SDS011;597;51.998;5.880;2022-08-01T11:00:44;9.30;;;5.20;;
1214;SDS011;597;51.998;5.880;2022-08-01T11:03:10;6.47;;;4.93;;
1214;SDS011;597;51.998;5.880;2022-08-01T11:05:35;6.80;;;4.40;;
1214;SDS011;597;51.998;5.880;2022-08-01T11:08:06;12.17;;;5.30;;
1214;SDS011;597;51.998;5.880;2022-08-01T11:12:58;6.60;;;4.20;;
1214;SDS011;597;51.998;5.880;2022-08-01T11:15:25;9.00;;;4.00;;
1214;SDS011;597;51.998;5.880;2022-08-01T11:17:52;10.43;;;4.73;;
1214;SDS011;597;51.998;5.880;2022-08-01T11:20:18;13.27;;;5.03;;
1214;SDS011;597;51.998;5.880;2022-08-01T11:25:25;15.33;;;4.37;;
1214;SDS011;597;51.998;5.880;2022-08-01T11:30:52;11.53;;;4.00;;
1214;SDS011;597;51.998;5.880;2022-08-01T11:33:47;10.17;;;4.13;;
1214;SDS011;597;51.998;5.880;2022-08-01T11:41:10;7.07;;;4.03;;
1214;SDS011;597;51.998;5.880;2022-08-01T11:43:35;6.53;;;3.87;;
1214;SDS011;597;51.998;5.880;2022-08-01T11:46:18;9.30;;;4.80;;
1214;SDS011;597;51.998;5.880;2022-08-01T11:48:44;8.30;;;4.27;;
1214;SDS011;597;51.998;5.880;2022-08-01T11:51:09;7.73;;;4.10;;
1214;SDS011;597;51.998;5.880;2022-08-01T11:53:46;10.73;;;3.73;;
1214;SDS011;597;51.998;5.880;2022-08-01T11:56:11;7.13;;;3.80;;
1214;SDS011;597;51.998;5.880;2022-08-01T11:58:37;9.10;;;3.93;;
1214;SDS011;597;51.998;5.880;2022-08-01T12:01:02;8.73;;;4.53;;
1214;SDS011;597;51.998;5.880;2022-08-01T12:03:28;11.47;;;4.17;;
1214;SDS011;597;51.998;5.880;2022-08-01T12:05:54;18.00;;;4.97;;
1214;SDS011;597;51.998;5.880;2022-08-01T12:08:26;10.70;;;3.70;;
1214;SDS011;597;51.998;5.880;2022-08-01T12:10:51;9.97;;;4.30;;
1214;SDS011;597;51.998;5.880;2022-08-01T12:13:17;8.27;;;3.43;;
1214;SDS011;597;51.998;5.880;2022-08-01T12:15:45;6.07;;;3.17;;
1214;SDS011;597;51.998;5.880;2022-08-01T12:18:10;17.73;;;4.40;;
1214;SDS011;597;51.998;5.880;2022-08-01T12:20:37;8.57;;;4.10;;
1214;SDS011;597;51.998;5.880;2022-08-01T12:23:03;6.10;;;3.43;;
1214;SDS011;597;51.998;5.880;2022-08-01T12:25:30;8.30;;;3.20;;
1214;SDS011;597;51.998;5.880;2022-08-01T12:27:59;7.00;;;2.43;;
1214;SDS011;597;51.998;5.880;2022-08-01T12:30:24;10.13;;;3.10;;
1214;SDS011;597;51.998;5.880;2022-08-01T12:32:53;10.57;;;2.90;;
1214;SDS011;597;51.998;5.880;2022-08-01T12:35:20;10.10;;;3.00;;
1214;SDS011;597;51.998;5.880;2022-08-01T12:37:48;8.60;;;3.00;;
1214;SDS011;597;51.998;5.880;2022-08-01T12:40:15;7.53;;;2.90;;
1214;SDS011;597;51.998;5.880;2022-08-01T12:42:41;4.63;;;2.00;;
1214;SDS011;597;51.998;5.880;2022-08-01T12:45:07;9.90;;;3.40;;
1214;SDS011;597;51.998;5.880;2022-08-01T12:47:33;9.47;;;3.37;;
1214;SDS011;597;51.998;5.880;2022-08-01T12:50:00;8.17;;;3.40;;
1214;SDS011;597;51.998;5.880;2022-08-01T12:52:25;6.27;;;2.47;;
1214;SDS011;597;51.998;5.880;2022-08-01T12:57:35;13.30;;;3.77;;
1214;SDS011;597;51.998;5.880;2022-08-01T13:00:07;7.10;;;3.17;;
1214;SDS011;597;51.998;5.880;2022-08-01T13:02:34;6.13;;;2.93;;
1214;SDS011;597;51.998;5.880;2022-08-01T13:04:59;4.70;;;3.00;;
1214;SDS011;597;51.998;5.880;2022-08-01T13:07:35;10.10;;;2.70;;
1214;SDS011;597;51.998;5.880;2022-08-01T13:10:00;8.17;;;2.80;;
1214;SDS011;597;51.998;5.880;2022-08-01T13:12:25;4.90;;;2.80;;
1214;SDS011;597;51.998;5.880;2022-08-01T13:14:51;5.37;;;2.70;;
1214;SDS011;597;51.998;5.880;2022-08-01T13:17:34;4.43;;;3.03;;
1214;SDS011;597;51.998;5.880;2022-08-01T13:20:04;6.50;;;2.80;;
1214;SDS011;597;51.998;5.880;2022-08-01T13:22:33;7.70;;;3.37;;
1214;SDS011;597;51.998;5.880;2022-08-01T13:25:14;9.70;;;3.33;;
1214;SDS011;597;51.998;5.880;2022-08-01T13:27:40;5.57;;;2.67;;
1214;SDS011;597;51.998;5.880;2022-08-01T13:30:15;6.57;;;3.03;;
1214;SDS011;597;51.998;5.880;2022-08-01T13:32:41;9.73;;;3.20;;
1214;SDS011;597;51.998;5.880;2022-08-01T13:35:11;4.00;;;2.70;;
1214;SDS011;597;51.998;5.880;2022-08-01T13:37:37;7.20;;;3.27;;
1214;SDS011;597;51.998;5.880;2022-08-01T13:40:03;6.07;;;2.47;;
1214;SDS011;597;51.998;5.880;2022-08-01T13:42:36;4.40;;;2.60;;
1214;SDS011;597;51.998;5.880;2022-08-01T13:45:01;12.07;;;2.90;;
1214;SDS011;597;51.998;5.880;2022-08-01T13:47:26;4.37;;;2.90;;
1214;SDS011;597;51.998;5.880;2022-08-01T13:49:52;4.10;;;2.60;;
1214;SDS011;597;51.998;5.880;2022-08-01T13:52:17;5.83;;;2.47;;
1214;SDS011;597;51.998;5.880;2022-08-01T13:54:42;6.43;;;2.80;;
1214;SDS011;597;51.998;5.880;2022-08-01T13:57:07;6.60;;;2.67;;
1214;SDS011;597;51.998;5.880;2022-08-01T13:59:33;10.27;;;3.13;;
1214;SDS011;597;51.998;5.880;2022-08-01T14:01:58;6.60;;;2.50;;
1214;SDS011;597;51.998;5.880;2022-08-01T14:04:23;8.13;;;2.83;;
1214;SDS011;597;51.998;5.880;2022-08-01T14:06:48;4.80;;;2.63;;
1214;SDS011;597;51.998;5.880;2022-08-01T14:09:14;3.47;;;2.97;;
1214;SDS011;597;51.998;5.880;2022-08-01T14:11:41;9.57;;;2.80;;
1214;SDS011;597;51.998;5.880;2022-08-01T14:14:06;8.33;;;2.73;;
1214;SDS011;597;51.998;5.880;2022-08-01T14:16:32;5.30;;;2.50;;
1214;SDS011;597;51.998;5.880;2022-08-01T14:18:57;3.40;;;2.60;;
1214;SDS011;597;51.998;5.880;2022-08-01T14:21:22;3.20;;;2.33;;
1214;SDS011;597;51.998;5.880;2022-08-01T14:23:47;5.83;;;3.10;;
1214;SDS011;597;51.998;5.880;2022-08-01T14:26:12;3.63;;;2.43;;
1214;SDS011;597;51.998;5.880;2022-08-01T14:28:38;2.73;;;2.00;;
1214;SDS011;597;51.998;5.880;2022-08-01T14:31:04;3.33;;;1.97;;
1214;SDS011;597;51.998;5.880;2022-08-01T14:33:31;3.90;;;1.97;;
1214;SDS011;597;51.998;5.880;2022-08-01T14:35:56;4.77;;;2.10;;
1214;SDS011;597;51.998;5.880;2022-08-01T14:38:21;2.07;;;1.57;;
1214;SDS011;597;51.998;5.880;2022-08-01T14:40:46;2.93;;;1.47;;
1214;SDS011;597;51.998;5.880;2022-08-01T14:43:16;3.43;;;1.73;;
1214;SDS011;597;51.998;5.880;2022-08-01T14:45:41;6.47;;;2.30;;
1214;SDS011;597;51.998;5.880;2022-08-01T14:48:06;4.33;;;2.10;;
1214;SDS011;597;51.998;5.880;2022-08-01T14:50:31;3.47;;;1.70;;
1214;SDS011;597;51.998;5.880;2022-08-01T14:52:56;4.97;;;1.93;;
1214;SDS011;597;51.998;5.880;2022-08-01T14:55:22;6.13;;;2.07;;
1214;SDS011;597;51.998;5.880;2022-08-01T14:57:50;5.10;;;2.23;;
1214;SDS011;597;51.998;5.880;2022-08-01T15:00:15;3.63;;;2.50;;
1214;SDS011;597;51.998;5.880;2022-08-01T15:02:41;2.87;;;1.87;;
1214;SDS011;597;51.998;5.880;2022-08-01T15:05:07;4.67;;;2.87;;
1214;SDS011;597;51.998;5.880;2022-08-01T15:07:32;5.83;;;2.10;;
1214;SDS011;597;51.998;5.880;2022-08-01T15:09:57;3.73;;;2.37;;
1214;SDS011;597;51.998;5.880;2022-08-01T15:12:22;3.70;;;2.40;;
1214;SDS011;597;51.998;5.880;2022-08-01T15:14:48;5.07;;;1.80;;
1214;SDS011;597;51.998;5.880;2022-08-01T15:19:41;4.17;;;2.13;;
1214;SDS011;597;51.998;5.880;2022-08-01T15:22:06;5.10;;;2.00;;
1214;SDS011;597;51.998;5.880;2022-08-01T15:24:31;4.43;;;1.60;;
1214;SDS011;597;51.998;5.880;2022-08-01T15:26:57;3.07;;;1.60;;
1214;SDS011;597;51.998;5.880;2022-08-01T15:29:22;3.20;;;1.80;;
1214;SDS011;597;51.998;5.880;2022-08-01T15:31:47;4.63;;;1.90;;
1214;SDS011;597;51.998;5.880;2022-08-01T15:34:12;2.00;;;1.67;;
1214;SDS011;597;51.998;5.880;2022-08-01T15:36:37;1.80;;;1.50;;
1214;SDS011;597;51.998;5.880;2022-08-01T15:39:03;3.53;;;1.60;;
1214;SDS011;597;51.998;5.880;2022-08-01T15:41:28;6.90;;;2.83;;
1214;SDS011;597;51.998;5.880;2022-08-01T15:43:53;2.43;;;1.50;;
1214;SDS011;597;51.998;5.880;2022-08-01T15:46:18;2.30;;;1.90;;
1214;SDS011;597;51.998;5.880;2022-08-01T15:48:43;3.30;;;1.50;;
1214;SDS011;597;51.998;5.880;2022-08-01T15:51:09;3.13;;;2.13;;